createdAt,value
2018-04-17T00:00:53.614Z,1.00
2018-04-17T00:03:22.566Z,1.00
2018-04-17T00:05:52.577Z,1.00
2018-04-17T00:08:22.610Z,1.00
2018-04-17T00:10:55.125Z,1.00
2018-04-17T00:13:23.183Z,1.00
2018-04-17T00:15:54.901Z,1.00
2018-04-17T00:18:26.661Z,1.00
2018-04-17T00:20:56.672Z,1.00
2018-04-17T00:23:29.969Z,1.00
2018-04-17T00:25:58.021Z,1.00
2018-04-17T00:28:26.968Z,1.00
2018-04-17T00:30:55.007Z,1.00
2018-04-17T00:33:23.024Z,1.00
2018-04-17T00:35:51.071Z,1.00
2018-04-17T00:38:21.097Z,1.00
2018-04-17T00:40:52.723Z,1.00
2018-04-17T00:43:20.775Z,1.00
2018-04-17T00:45:50.792Z,1.00
2018-04-17T00:48:21.557Z,1.00
2018-04-17T00:50:50.533Z,1.00
2018-04-17T00:53:35.153Z,1.00
2018-04-17T00:56:04.888Z,1.00
2018-04-17T00:58:34.906Z,1.00
2018-04-17T01:01:10.726Z,1.00
2018-04-17T01:03:39.770Z,1.00
2018-04-17T01:06:07.806Z,1.00
2018-04-17T01:08:39.280Z,1.00
2018-04-17T01:11:07.305Z,1.00
2018-04-17T01:13:36.330Z,1.00
2018-04-17T01:16:05.326Z,1.00
2018-04-17T01:18:34.342Z,1.00
2018-04-17T01:21:09.527Z,1.00
2018-04-17T01:23:38.545Z,1.00
2018-04-17T01:26:08.558Z,1.00
2018-04-17T01:28:36.591Z,1.00
2018-04-17T01:31:08.713Z,1.00
2018-04-17T01:33:41.476Z,1.00
2018-04-17T01:36:13.153Z,1.00
2018-04-17T01:38:48.433Z,1.00
2018-04-17T01:41:16.601Z,1.00
2018-04-17T01:43:46.546Z,1.00
2018-04-17T01:46:14.573Z,1.00
2018-04-17T01:48:43.521Z,1.00
2018-04-17T01:51:15.385Z,1.00
2018-04-17T01:53:43.631Z,1.00
2018-04-17T01:56:11.686Z,1.00
2018-04-17T01:58:40.615Z,1.00
2018-04-17T02:01:14.112Z,1.00
2018-04-17T02:03:42.140Z,1.00
2018-04-17T02:06:11.204Z,1.00
2018-04-17T02:08:52.044Z,1.00
2018-04-17T02:11:22.116Z,1.00
2018-04-17T02:14:02.600Z,1.00
2018-04-17T02:16:35.460Z,1.00
2018-04-17T02:19:05.440Z,1.00
2018-04-17T02:21:33.468Z,1.00
2018-04-17T02:24:06.699Z,1.00
2018-04-17T02:26:34.939Z,1.00
2018-04-17T02:29:08.264Z,1.00
2018-04-17T02:31:36.296Z,1.00
2018-04-17T02:34:07.977Z,1.00
2018-04-17T02:36:36.084Z,1.00
2018-04-17T02:39:04.109Z,1.00
2018-04-17T02:41:33.134Z,1.00
2018-04-17T02:44:05.888Z,1.00
2018-04-17T02:46:34.884Z,1.00
2018-04-17T02:49:06.454Z,1.00
2018-04-17T02:51:36.344Z,1.00
2018-04-17T02:54:16.591Z,1.00
2018-04-17T02:56:47.751Z,1.00
2018-04-17T02:59:20.338Z,1.00
2018-04-17T03:01:49.734Z,1.00
2018-04-17T03:04:17.762Z,1.00
2018-04-17T03:06:46.437Z,1.00
2018-04-17T03:09:15.498Z,1.00
2018-04-17T03:11:46.790Z,1.00
2018-04-17T03:14:14.833Z,1.00
2018-04-17T03:16:42.870Z,1.00
2018-04-17T03:19:10.906Z,1.00
2018-04-17T03:21:43.733Z,1.00
2018-04-17T03:24:11.753Z,1.00
2018-04-17T03:26:45.194Z,1.00
2018-04-17T03:29:14.006Z,1.00
2018-04-17T03:31:42.142Z,1.00
2018-04-17T03:34:10.105Z,1.00
2018-04-17T03:36:38.137Z,1.00
2018-04-17T03:39:06.173Z,1.00
2018-04-17T03:41:34.969Z,1.00
2018-04-17T03:44:03.945Z,1.00
2018-04-17T03:46:31.972Z,1.00
2018-04-17T03:49:05.636Z,1.00
2018-04-17T03:51:34.600Z,1.00
2018-04-17T03:54:04.612Z,1.00
2018-04-17T03:56:34.629Z,1.00
2018-04-17T03:59:02.668Z,1.00
2018-04-17T04:01:32.616Z,1.00
2018-04-17T04:04:00.664Z,1.00
2018-04-17T04:06:28.700Z,1.00
2018-04-17T04:08:56.731Z,1.00
2018-04-17T04:11:27.451Z,1.00
2018-04-17T04:13:57.487Z,1.00
2018-04-17T04:16:38.103Z,1.00
2018-04-17T04:19:18.880Z,1.00
2018-04-17T04:22:04.244Z,1.00
2018-04-17T04:24:46.122Z,1.00
2018-04-17T04:27:14.142Z,1.00
2018-04-17T04:29:48.930Z,1.00
2018-04-17T04:32:19.831Z,1.00
2018-04-17T04:34:49.611Z,1.00
2018-04-17T04:37:22.607Z,1.00
2018-04-17T04:39:50.642Z,1.00
2018-04-17T04:42:18.691Z,1.00
2018-04-17T04:44:46.879Z,1.00
2018-04-17T04:47:15.919Z,1.00
2018-04-17T04:49:43.979Z,1.00
2018-04-17T04:52:12.019Z,1.00
2018-04-17T04:54:41.043Z,1.00
2018-04-17T04:57:09.075Z,1.00
2018-04-17T04:59:42.499Z,1.00
2018-04-17T05:02:12.523Z,1.00
2018-04-17T05:04:45.961Z,1.00
2018-04-17T05:07:18.620Z,1.00
2018-04-17T05:09:48.623Z,1.00
2018-04-17T05:12:17.451Z,1.00
2018-04-17T05:14:46.511Z,1.00
2018-04-17T05:17:16.311Z,1.00
2018-04-17T05:19:45.299Z,1.00
2018-04-17T05:22:13.340Z,1.00
2018-04-17T05:24:44.032Z,1.00
2018-04-17T05:27:12.840Z,1.00
2018-04-17T05:29:52.308Z,1.00
2018-04-17T05:32:22.080Z,1.00
2018-04-17T05:34:51.052Z,1.00
2018-04-17T05:37:19.076Z,1.00
2018-04-17T05:39:52.812Z,1.00
2018-04-17T05:42:20.832Z,1.00
2018-04-17T05:44:53.684Z,1.00
2018-04-17T05:47:22.644Z,1.00
2018-04-17T05:49:51.660Z,1.00
2018-04-17T05:52:20.460Z,1.00
2018-04-17T05:54:55.516Z,1.00
2018-04-17T05:57:24.576Z,1.00
2018-04-17T05:59:53.360Z,1.00
2018-04-17T06:02:22.188Z,1.00
2018-04-17T06:04:53.392Z,1.00
2018-04-17T06:07:23.211Z,1.00
2018-04-17T06:09:52.020Z,1.00
2018-04-17T06:12:22.012Z,1.00
2018-04-17T06:14:55.331Z,1.00
2018-04-17T06:17:24.276Z,1.00
2018-04-17T06:19:56.025Z,1.00
2018-04-17T06:22:26.047Z,1.00
2018-04-17T06:24:57.644Z,1.00
2018-04-17T06:27:26.592Z,1.00
2018-04-17T06:29:57.961Z,1.00
2018-04-17T06:32:29.706Z,1.00
2018-04-17T06:34:57.735Z,1.00
2018-04-17T06:37:25.753Z,1.00
2018-04-17T06:39:53.768Z,1.00
2018-04-17T06:42:21.787Z,1.00
2018-04-17T06:44:55.575Z,1.00
2018-04-17T06:47:23.624Z,99.90
2018-04-17T06:50:04.791Z,99.90
2018-04-17T06:52:47.767Z,99.90
2018-04-17T06:55:19.043Z,99.90
2018-04-17T06:57:47.955Z,99.90
2018-04-17T07:00:19.367Z,99.90
2018-04-17T07:03:04.548Z,99.90
2018-04-17T07:05:45.296Z,99.90
2018-04-17T07:08:14.108Z,1.00
2018-04-17T07:10:42.116Z,1.00
2018-04-17T07:13:13.371Z,1.00
2018-04-17T07:15:46.712Z,1.00
2018-04-17T07:18:16.667Z,1.00
2018-04-17T07:20:44.699Z,1.00
2018-04-17T07:23:13.607Z,1.00
2018-04-17T07:25:54.792Z,99.90
2018-04-17T07:28:37.460Z,99.90
2018-04-17T07:31:12.528Z,99.90
2018-04-17T07:33:47.471Z,99.90
2018-04-17T07:36:18.448Z,35.10
2018-04-17T07:38:52.176Z,1.00
2018-04-17T07:44:14.032Z,1.00
2018-04-17T07:47:02.276Z,1.00
2018-04-17T07:49:49.927Z,99.90
2018-04-17T07:52:17.988Z,99.90
2018-04-17T07:54:47.888Z,1.00
2018-04-17T07:57:19.103Z,99.90
2018-04-17T07:59:49.031Z,1.00
2018-04-17T08:02:17.816Z,1.00
2018-04-17T08:04:46.623Z,99.90
2018-04-17T08:07:15.563Z,99.90
2018-04-17T08:09:51.389Z,1.00
2018-04-17T08:12:19.416Z,1.00
2018-04-17T08:14:52.395Z,89.70
2018-04-17T08:17:23.079Z,99.90
2018-04-17T08:19:59.556Z,99.90
2018-04-17T08:22:35.391Z,1.00
2018-04-17T08:25:03.431Z,1.00
2018-04-17T08:27:35.355Z,1.00
2018-04-17T08:30:11.783Z,1.00
2018-04-17T08:32:44.015Z,1.00
2018-04-17T08:35:13.710Z,99.90
2018-04-17T08:37:45.771Z,99.90
2018-04-17T08:40:13.799Z,1.00
2018-04-17T08:42:49.142Z,22.50
2018-04-17T08:45:22.151Z,1.00
2018-04-17T08:47:56.855Z,99.90
2018-04-17T08:50:29.131Z,99.90
2018-04-17T08:53:12.523Z,99.90
2018-04-17T08:55:53.658Z,99.90
2018-04-17T08:58:25.726Z,99.90
2018-04-17T09:00:53.760Z,99.90
2018-04-17T09:03:23.695Z,1.00
2018-04-17T09:05:51.710Z,1.00
2018-04-17T09:08:27.370Z,99.90
2018-04-17T09:10:57.050Z,99.90
2018-04-17T09:13:33.082Z,99.90
2018-04-17T09:16:25.188Z,36.50
2018-04-17T09:18:57.938Z,1.00
2018-04-17T09:21:32.383Z,1.00
2018-04-17T09:24:00.455Z,1.00
2018-04-17T09:26:28.439Z,1.00
2018-04-17T09:28:56.447Z,1.00
2018-04-17T09:31:36.355Z,1.00
2018-04-17T09:34:12.008Z,1.00
2018-04-17T09:36:40.019Z,1.00
2018-04-17T09:39:08.029Z,1.00
2018-04-17T09:41:36.039Z,1.00
2018-04-17T09:44:10.095Z,1.00
2018-04-17T09:46:49.962Z,1.00
2018-04-17T09:49:17.974Z,1.00
2018-04-17T09:51:50.159Z,1.00
2018-04-17T09:57:12.019Z,1.00
2018-04-17T09:59:46.502Z,1.00
2018-04-17T10:02:18.478Z,1.00
2018-04-17T10:04:47.474Z,1.00
2018-04-17T10:07:15.490Z,1.00
2018-04-17T10:12:51.646Z,1.00
2018-04-17T10:15:30.910Z,1.00
2018-04-17T10:17:59.830Z,1.00
2018-04-17T10:20:28.739Z,1.00
2018-04-17T10:22:58.734Z,1.00
2018-04-17T10:25:33.654Z,1.00
2018-04-17T10:28:11.538Z,1.00
2018-04-17T10:30:45.354Z,1.00
2018-04-17T10:33:19.186Z,1.00
2018-04-17T10:35:48.122Z,1.00
2018-04-17T10:38:19.926Z,1.00
2018-04-17T10:40:48.882Z,1.00
2018-04-17T10:43:16.902Z,1.00
2018-04-17T10:45:50.454Z,1.00
2018-04-17T10:48:19.378Z,1.00
2018-04-17T10:51:04.610Z,1.00
2018-04-17T10:53:33.546Z,1.00
2018-04-17T10:56:02.538Z,1.00
2018-04-17T10:58:42.158Z,1.00
2018-04-17T11:01:16.573Z,1.00
2018-04-17T11:04:06.553Z,1.00
2018-04-17T11:06:44.438Z,1.00
2018-04-17T11:09:20.682Z,1.00
2018-04-17T11:11:51.386Z,99.90
2018-04-17T11:17:19.489Z,99.90
2018-04-17T11:19:47.538Z,99.90
2018-04-17T11:22:36.510Z,99.90
2018-04-17T11:25:10.086Z,99.90
2018-04-17T11:27:42.070Z,99.90
2018-04-17T11:30:11.014Z,99.90
2018-04-17T11:32:47.170Z,99.90
2018-04-17T11:35:15.182Z,99.90
2018-04-17T11:37:50.685Z,1.00
2018-04-17T11:40:32.970Z,1.00
2018-04-17T11:43:03.701Z,1.00
2018-04-17T11:45:34.870Z,1.00
2018-04-17T11:48:02.838Z,1.00
2018-04-17T11:50:34.090Z,99.90
2018-04-17T11:53:02.118Z,99.90
2018-04-17T11:55:36.138Z,99.90
2018-04-17T11:58:11.806Z,99.90
2018-04-17T12:00:40.777Z,99.90
2018-04-17T12:03:11.509Z,99.90
2018-04-17T12:05:42.274Z,99.90
2018-04-17T12:08:11.258Z,99.90
2018-04-17T12:10:39.293Z,99.90
2018-04-17T12:13:12.033Z,99.90
2018-04-17T12:15:43.946Z,99.90
2018-04-17T12:18:16.617Z,99.90
2018-04-17T12:20:50.905Z,99.90
2018-04-17T12:23:24.013Z,99.90
2018-04-17T12:25:52.986Z,1.00
2018-04-17T12:28:22.844Z,1.00
2018-04-17T12:30:51.624Z,1.00
2018-04-17T12:33:25.808Z,1.00
2018-04-17T12:35:55.844Z,1.00
2018-04-17T12:38:24.816Z,1.00
2018-04-17T12:40:54.844Z,1.00
2018-04-17T12:43:22.860Z,1.00
2018-04-17T12:45:54.251Z,1.00
2018-04-17T12:48:25.999Z,1.00
2018-04-17T12:50:54.028Z,1.00
2018-04-17T12:53:22.959Z,1.00
2018-04-17T12:55:50.995Z,99.90
2018-04-17T12:58:19.926Z,99.90
2018-04-17T13:00:49.948Z,99.90
2018-04-17T13:03:18.891Z,99.90
2018-04-17T13:05:47.830Z,1.00
2018-04-17T13:08:20.379Z,1.00
2018-04-17T13:10:49.342Z,1.00
2018-04-17T13:13:17.371Z,1.00
2018-04-17T13:15:45.450Z,1.00
2018-04-17T13:18:13.412Z,1.00
2018-04-17T13:20:42.392Z,1.00
2018-04-17T13:23:10.422Z,1.00
2018-04-17T13:25:39.369Z,1.00
2018-04-17T13:28:09.377Z,1.00
2018-04-17T13:30:49.001Z,1.00
2018-04-17T13:33:20.977Z,1.00
2018-04-17T13:35:50.893Z,1.00
2018-04-17T13:38:19.810Z,1.00
2018-04-17T13:41:07.713Z,1.00
2018-04-17T13:43:40.413Z,1.00
2018-04-17T13:46:09.340Z,1.00
2018-04-17T13:48:39.296Z,1.00
2018-04-17T13:51:11.645Z,1.00
2018-04-17T13:53:44.277Z,99.90
2018-04-17T13:56:12.316Z,99.90
2018-04-17T13:58:40.344Z,99.90
2018-04-17T14:01:10.252Z,99.90
2018-04-17T14:03:42.175Z,99.90
2018-04-17T14:06:11.152Z,99.90
2018-04-17T14:08:39.170Z,99.90
2018-04-17T14:11:33.364Z,99.90
2018-04-17T14:14:09.832Z,99.90
2018-04-17T14:16:48.668Z,99.90
2018-04-17T14:19:27.856Z,99.90
2018-04-17T14:22:01.544Z,99.90
2018-04-17T14:24:31.628Z,99.90
2018-04-17T14:26:59.656Z,99.90
2018-04-17T14:29:32.572Z,99.90
2018-04-17T14:32:12.357Z,99.90
2018-04-17T14:34:46.340Z,99.90
2018-04-17T14:37:14.361Z,99.90
2018-04-17T14:39:51.095Z,99.90
2018-04-17T14:42:20.013Z,99.90
2018-04-17T14:44:51.165Z,99.90
2018-04-17T14:47:24.670Z,99.90
2018-04-17T14:49:59.145Z,99.90
2018-04-17T14:52:32.627Z,99.90
2018-04-17T14:55:02.298Z,99.90
2018-04-17T14:57:32.072Z,99.90
2018-04-17T15:00:00.092Z,99.90
2018-04-17T15:02:29.009Z,99.90
2018-04-17T15:05:07.820Z,99.90
2018-04-17T15:07:35.837Z,99.90
2018-04-17T15:10:03.860Z,99.90
2018-04-17T15:12:31.883Z,99.90
2018-04-17T15:15:08.040Z,99.90
2018-04-17T15:17:40.092Z,99.90
2018-04-17T15:20:08.116Z,99.90
2018-04-17T15:22:37.052Z,99.90
2018-04-17T15:25:10.724Z,99.90
2018-04-17T15:27:38.731Z,99.90
2018-04-17T15:30:07.652Z,99.90
2018-04-17T15:32:36.428Z,99.90
2018-04-17T15:35:10.097Z,99.90
2018-04-17T15:37:42.088Z,99.90
2018-04-17T15:40:10.897Z,99.90
2018-04-17T15:42:42.840Z,99.90
2018-04-17T15:45:11.718Z,99.90
2018-04-17T15:47:40.632Z,99.90
2018-04-17T15:50:10.328Z,99.90
2018-04-17T15:52:51.712Z,99.90
2018-04-17T15:55:27.608Z,99.90
2018-04-17T15:57:55.661Z,99.90
2018-04-17T16:00:49.344Z,99.90
2018-04-17T16:03:18.264Z,99.90
2018-04-17T16:05:46.288Z,99.90
2018-04-17T16:08:14.316Z,99.90
2018-04-17T16:10:49.216Z,99.90
2018-04-17T16:13:22.545Z,99.90
2018-04-17T16:15:55.148Z,99.90
2018-04-17T16:18:23.952Z,99.90
2018-04-17T16:20:52.900Z,99.90
2018-04-17T16:23:21.876Z,99.90
2018-04-17T16:25:53.765Z,99.90
2018-04-17T16:28:28.329Z,99.90
2018-04-17T16:30:56.337Z,99.90
2018-04-17T16:33:24.369Z,99.90
2018-04-17T16:35:56.172Z,99.90
2018-04-17T16:38:27.916Z,99.90
2018-04-17T16:40:56.828Z,99.90
2018-04-17T16:43:45.317Z,99.90
2018-04-17T16:46:13.341Z,99.90
2018-04-17T16:48:42.281Z,99.90
2018-04-17T16:51:11.084Z,99.90
2018-04-17T16:53:39.090Z,99.90
2018-04-17T16:56:11.116Z,99.90
2018-04-17T16:58:40.139Z,99.90
2018-04-17T17:01:10.164Z,99.90
2018-04-17T17:03:38.204Z,99.90
2018-04-17T17:06:06.197Z,99.90
2018-04-17T17:08:47.877Z,99.90
2018-04-17T17:11:18.954Z,99.90
2018-04-17T17:13:53.453Z,99.90
2018-04-17T17:16:28.245Z,99.90
2018-04-17T17:18:57.276Z,99.90
2018-04-17T17:21:26.176Z,1.00
2018-04-17T17:23:55.076Z,1.00
2018-04-17T17:26:33.536Z,1.00
2018-04-17T17:29:01.593Z,1.00
2018-04-17T17:31:33.350Z,1.00
2018-04-17T17:34:03.302Z,1.00
2018-04-17T17:36:42.606Z,1.00
2018-04-17T17:39:20.904Z,1.00
2018-04-17T17:41:48.928Z,1.00
2018-04-17T17:44:16.944Z,1.00
2018-04-17T17:46:45.856Z,1.00
2018-04-17T17:49:26.636Z,1.00
2018-04-17T17:52:01.872Z,27.10
2018-04-17T17:54:34.919Z,99.90
2018-04-17T17:57:10.548Z,1.00
2018-04-17T17:59:46.723Z,1.00
2018-04-17T18:02:15.624Z,1.00
2018-04-17T18:04:44.532Z,1.00
2018-04-17T18:07:12.544Z,1.00
2018-04-17T18:09:44.103Z,99.90
2018-04-17T18:12:12.135Z,1.00
2018-04-17T18:14:40.152Z,99.90
2018-04-17T18:17:09.936Z,1.00
2018-04-17T18:19:44.432Z,1.00
2018-04-17T18:22:14.364Z,1.00
2018-04-17T18:24:59.091Z,1.00
2018-04-17T18:27:34.336Z,93.60
2018-04-17T18:30:02.380Z,99.90
2018-04-17T18:35:48.934Z,99.90
2018-04-17T18:38:24.279Z,99.90
2018-04-17T18:41:08.903Z,1.00
2018-04-17T18:43:38.879Z,91.90
2018-04-17T18:46:08.911Z,99.90
2018-04-17T18:48:48.519Z,99.90
2018-04-17T18:51:36.532Z,99.90
2018-04-17T18:54:06.495Z,99.90
2018-04-17T18:56:35.507Z,1.00
2018-04-17T18:59:06.235Z,1.00
2018-04-17T19:01:34.259Z,1.00
2018-04-17T19:04:02.287Z,1.00
2018-04-17T19:06:31.167Z,1.00
2018-04-17T19:08:59.134Z,1.00
2018-04-17T19:11:28.682Z,1.00
2018-04-17T19:13:56.737Z,1.00
2018-04-17T19:16:27.757Z,1.00
2018-04-17T19:18:56.726Z,6.20
2018-04-17T19:21:24.829Z,1.00
2018-04-17T19:23:56.069Z,1.00
2018-04-17T19:26:26.815Z,1.00
2018-04-17T19:28:55.597Z,1.00
2018-04-17T19:31:26.650Z,1.00
2018-04-17T19:33:54.674Z,1.00
2018-04-17T19:36:22.722Z,1.00
2018-04-17T19:38:54.229Z,1.00
2018-04-17T19:41:26.689Z,1.00
2018-04-17T19:43:56.697Z,1.00
2018-04-17T19:46:24.750Z,1.00
2018-04-17T19:48:54.621Z,1.00
2018-04-17T19:51:22.678Z,1.00
2018-04-17T19:53:54.404Z,1.00
2018-04-17T19:56:28.701Z,1.00
2018-04-17T19:58:57.710Z,1.00
2018-04-17T20:01:26.809Z,1.00
2018-04-17T20:03:54.862Z,1.00
2018-04-17T20:06:26.622Z,1.00
2018-04-17T20:08:58.190Z,1.00
2018-04-17T20:11:27.226Z,1.00
2018-04-17T20:13:55.266Z,47.40
2018-04-17T20:16:23.264Z,1.00
2018-04-17T20:18:51.289Z,12.10
2018-04-17T20:21:23.861Z,14.80
2018-04-17T20:23:53.877Z,1.00
2018-04-17T20:26:24.043Z,22.60
2018-04-17T20:28:53.913Z,99.90
2018-04-17T20:31:29.686Z,99.90
2018-04-17T20:33:58.618Z,99.90
2018-04-17T20:36:30.617Z,99.90
2018-04-17T20:39:09.201Z,99.90
2018-04-17T20:41:41.297Z,99.90
2018-04-17T20:44:09.401Z,99.90
2018-04-17T20:46:40.825Z,99.90
2018-04-17T20:49:09.002Z,99.90
2018-04-17T20:51:38.617Z,99.90
2018-04-17T20:54:07.650Z,99.90
2018-04-17T20:56:40.178Z,99.90
2018-04-17T20:59:15.742Z,99.90
2018-04-17T21:01:44.702Z,99.90
2018-04-17T21:04:12.736Z,99.90
2018-04-17T21:06:41.774Z,99.90
2018-04-17T21:09:13.890Z,99.90
2018-04-17T21:11:43.850Z,99.90
2018-04-17T21:14:11.883Z,99.90
2018-04-17T21:16:40.918Z,99.90
2018-04-17T21:19:08.941Z,99.90
2018-04-17T21:21:37.994Z,99.90
2018-04-17T21:24:09.230Z,99.90
2018-04-17T21:26:38.219Z,99.90
2018-04-17T21:29:11.934Z,99.90
2018-04-17T21:31:40.761Z,99.90
2018-04-17T21:34:09.551Z,99.90
2018-04-17T21:36:38.597Z,99.90
2018-04-17T21:39:10.329Z,99.90
2018-04-17T21:41:42.526Z,99.90
2018-04-17T21:44:10.649Z,99.90
2018-04-17T21:46:39.886Z,99.90
2018-04-17T21:49:08.886Z,99.90
2018-04-17T21:51:44.126Z,99.90
2018-04-17T21:54:14.849Z,99.90
2018-04-17T21:56:45.887Z,99.90
2018-04-17T21:59:14.881Z,99.90
2018-04-17T22:01:43.881Z,99.90
2018-04-17T22:04:12.845Z,99.90
2018-04-17T22:06:40.865Z,99.90
2018-04-17T22:09:10.817Z,99.90
2018-04-17T22:11:38.846Z,99.90
2018-04-17T22:14:07.905Z,99.90
2018-04-17T22:16:35.933Z,99.90
2018-04-17T22:19:04.861Z,99.90
2018-04-17T22:21:34.875Z,99.90
2018-04-17T22:24:04.909Z,99.90
2018-04-17T22:26:33.925Z,99.90
2018-04-17T22:29:08.679Z,99.90
2018-04-17T22:31:58.145Z,99.90
2018-04-17T22:34:27.189Z,99.90
2018-04-17T22:36:55.229Z,99.90
2018-04-17T22:39:24.257Z,99.90
2018-04-17T22:41:58.065Z,99.90
2018-04-17T22:44:28.063Z,99.90
2018-04-17T22:47:08.796Z,99.90
2018-04-17T22:49:43.624Z,1.00
2018-04-17T22:52:17.349Z,1.00
2018-04-17T22:54:46.256Z,1.00
2018-04-17T22:57:14.281Z,1.00
2018-04-17T22:59:45.665Z,1.00
2018-04-17T23:02:14.665Z,1.00
2018-04-17T23:04:42.689Z,1.00
2018-04-17T23:07:11.625Z,1.00
2018-04-17T23:09:39.649Z,1.00
2018-04-17T23:12:08.578Z,1.00
2018-04-17T23:14:39.937Z,1.00
2018-04-17T23:17:07.973Z,1.00
2018-04-17T23:19:42.689Z,1.00
2018-04-17T23:22:19.121Z,1.00
2018-04-17T23:24:51.273Z,1.00
2018-04-17T23:27:20.249Z,1.00
2018-04-17T23:29:52.853Z,1.00
2018-04-17T23:32:21.665Z,1.00
2018-04-17T23:34:49.690Z,1.00
2018-04-17T23:37:17.705Z,1.00
2018-04-17T23:39:53.313Z,1.00
2018-04-17T23:42:28.041Z,1.00
2018-04-17T23:44:57.025Z,1.00
2018-04-17T23:47:27.055Z,1.00
2018-04-17T23:50:00.253Z,1.00
2018-04-17T23:52:28.296Z,1.00
2018-04-17T23:54:57.289Z,1.00
2018-04-17T23:57:25.292Z,1.00
2018-04-17T23:59:57.877Z,1.00
